DAUA

Adrar/Touat-Cheikh Sidi Mohamed Belkebir Airport

Airport
ICAO code
DAUA
IATA Code
AZR
Summary
ICAO Region
AFI
ICAO Territory
Location

Adrar, Adrar

Serving
Adrar
Elevation
919 ft
Coordinates
27° 50' 21" N , 0° 11' 7" W
Metar
DAUA 270700Z 19010KT 7000 NSC 14/M08 Q1007

Description

Touat-Cheikh Sidi Mohamed Belkebir Airport is a public airport located 6 nm southeast of Adrar, the capital of the Adrar province in Algeria.

Runways

Designator Length Width Surface Rops
4/22 3000 45 ASP No/No

Airport map

Aerial View

SKYbrary Partners:

Safety knowledge contributed by: